Aviation Digital Data Service (ADDS)

Output produced by METARs form (2117 UTC 20 November 2017)
found at http://www.aviationweather.gov/adds/metars/
 
KJST 202054Z AUTO 24011KT 10SM CLR 03/M06 A3005 RMK AO2 SLP198 T00331056 53002
KJST 201954Z AUTO 24009KT 10SM CLR 03/M05 A3004 RMK AO2 SLP194 T00331050
KJST 201854Z AUTO 26012KT 10SM CLR 03/M06 A3004 RMK AO2 SLP195 T00281056
KJST 201754Z AUTO 28014KT 10SM CLR 01/M06 A3004 RMK AO2 SLP197 T00111061 10017 21039 58011
KJST 201654Z AUTO 26013KT 10SM CLR 00/M06 A3005 RMK AO2 SLP200 T00001061
KJST 201554Z AUTO 27014KT 10SM CLR M01/M07 A3007 RMK AO2 SLP208 T10111067
KJST 201454Z AUTO 28016KT 10SM CLR M02/M07 A3008 RMK AO2 SLP210 T10221067 51007
KJST 201354Z AUTO 28015KT 10SM FEW019 M03/M07 A3007 RMK AO2 SLP210 T10331072
KJST 201319Z AUTO 28015G23KT 10SM SCT022 M03/M08 A3007 RMK AO2 T10331078
KJST 201254Z AUTO 26011G22KT 10SM OVC023 M03/M08 A3007 RMK AO2 SLP207 T10331078
KJST 201154Z AUTO 26014G21KT 10SM OVC020 M03/M08 A3005 RMK AO2 SLP204 60000 70005 T10331078 11022 21033 53023
KJST 201054Z AUTO 27012G19KT 10SM BKN018 OVC026 M03/M07 A3003 RMK AO2 SLP194 T10331067
KJST 201026Z AUTO 27012KT 10SM BKN022 BKN029 OVC034 M03/M07 A3002 RMK AO2 T10331072
KJST 200954Z AUTO 28013G21KT 10SM OVC032 M03/M08 A3000 RMK AO2 PK WND 29028/0913 SLP186 T10331083
KJST 200854Z AUTO 27018G30KT 10SM OVC035 M03/M09 A2998 RMK AO2 PK WND 25030/0854 SLP178 60000 T10331089 51017
KJST 200754Z AUTO 28016G23KT 10SM SCT028 OVC038 M03/M07 A2996 RMK AO2 SNE03 SLP171 P0000 T10281072
KJST 200654Z AUTO 28014G26KT 9SM -SN BKN030 OVC038 M03/M07 A2995 RMK AO2 PK WND 29027/0643 SNB44 SLP166 P0000 T10281072
KJST 200554Z AUTO 27011G21KT 10SM OVC045 M02/M07 A2993 RMK AO2 SNB37E47 SLP157 P0000 60003 T10221067 11006 21022 53013
KJST 200503Z AUTO 27014G23KT 10SM SCT025 OVC050 M02/M07 A2991 RMK AO2 T10221067
KJST 200454Z AUTO 28014G25KT 10SM BKN025 OVC050 M02/M07 A2990 RMK AO2 PK WND 28028/0408 SLP149 T10221067 401391022
KJST 200449Z AUTO 27014G25KT 10SM BKN025 OVC050 M02/M07 A2990 RMK AO2 PK WND 28028/0408
KJST 200437Z AUTO 26011G22KT 10SM SCT025 OVC050 M02/M07 A2990 RMK AO2 PK WND 28028/0408 T10221067
KJST 200354Z AUTO 27015G26KT 10SM BKN020 OVC024 M02/M06 A2989 RMK AO2 PK WND 30028/0255 SLP143 T10171056
KJST 200254Z AUTO 28019G25KT 10SM BKN018 OVC025 M02/M05 A2987 RMK AO2 SNE41 SLP137 P0001 60003 T10171050 53022
KJST 200234Z AUTO 28013G21KT 7SM -SN SCT007 OVC016 M02/M03 A2986 RMK AO2 P0001 T10171033
KJST 200231Z AUTO 27010G20KT 6SM -SN BR BKN007 BKN011 OVC016 M02/M03 A2986 RMK AO2 CIG 005V009 P0001 T10171033
KJST 200205Z AUTO 28013G21KT 2 1/2SM -SN BR OVC006 M02/M03 A2985 RMK AO2 P0000 T10171028
KJST 200154Z AUTO 28013G22KT 3SM -SN BR BKN004 OVC010 M02/M03 A2984 RMK AO2 SNB04 SLP128 P0002 T10171028
KJST 200137Z AUTO 31013KT 3/4SM -SN BR BKN006 OVC013 M02/M03 A2983 RMK AO2 SNB04 P0001 T10171028
KJST 200132Z AUTO 30013KT 2 1/2SM -SN BR SCT008 OVC013 M01/M03 A2983 RMK AO2 SNB04 P0000 T10111028
KJST 200125Z AUTO 28012G20KT 3SM -SN BR BKN013 OVC020 M01/M03 A2983 RMK AO2 SNB04 P0000 T10111028
KJST 200116Z AUTO 28014G25KT 1 3/4SM -SN BR FEW011 OVC015 M01/M03 A2983 RMK AO2 SNB04 P0000 T10111033
KJST 200054Z AUTO 27012G25KT 10SM BKN016 OVC022 M01/M03 A2982 RMK AO2 PK WND 30028/0015 SNE20B40E46 SLP117 P0000 T10061033
KJST 200018Z AUTO 29015G28KT 9SM -SN FEW009 BKN018 OVC026 M01/M03 A2981 RMK AO2 PK WND 30028/0015 P0000 T10061033
KJST 192359Z AUTO 28011G22KT 3SM -SN BR FEW008 BKN012 OVC019 M01/M02 A2980 RMK AO2 P0000 T10111022
KJST 192354Z AUTO 27014G23KT 1 1/4SM -SN BR FEW008 OVC012 M01/M03 A2980 RMK AO2 SNB2258 SLP113 P0000 60000 T10111028 10006 21011 53022
KJST 192349Z AUTO 27018G23KT 1 3/4SM -SN BR FEW007 OVC012 M01/M03 A2980 RMK AO2 SNB2258 P0000
KJST 192312Z AUTO 28015G24KT 6SM -SN BR BKN011 OVC018 M01/M03 A2979 RMK AO2 SNB2258 P0000 T10061028
KJST 192305Z AUTO 28012G23KT 3SM -SN BR SCT008 OVC015 M01/M02 A2978 RMK AO2 SNB2258 P0000 T10061022
KJST 192254Z AUTO 27018G27KT 9SM BKN014 OVC023 M01/M03 A2978 RMK AO2 PK WND 28027/2245 SNB22E51 SLP105 P0000 T10061028
KJST 192154Z AUTO 28011G20KT 10SM FEW020 BKN029 OVC060 00/M03 A2975 RMK AO2 SLP093 T00001033
KJST 192054Z AUTO 28012G22KT 10SM SCT024 OVC055 00/M04 A2973 RMK AO2 PK WND 28030/2007 SNB11E44 SLP088 P0000 60000 T00001039 53010
KJST 192028Z AUTO 28017G27KT 8SM -SN FEW027 BKN033 OVC050 00/M04 A2973 RMK AO2 PK WND 28030/2007 SNB11 P0000 T00001039
KJST 191954Z AUTO 28019G32KT 10SM BKN025 OVC031 01/M04 A2972 RMK AO2 PK WND 30032/1951 SLP081 T00061039
KJST 191943Z AUTO 28022G30KT 10SM BKN028 OVC037 01/M04 A2971 RMK AO2 PK WND 29030/1943 T00061039
KJST 191929Z AUTO 29015G26KT 10SM FEW019 SCT024 OVC037 01/M04 A2971 RMK AO2 PK WND 26029/1900 T00061039
KJST 191854Z AUTO 27017G32KT 10SM BKN018 BKN026 OVC030 01/M03 A2971 RMK AO2 PK WND 29032/1850 UPB20E38SNE03 SLP073 P0000 T00061028
KJST 191834Z AUTO 27019G28KT 10SM UP SCT016 BKN021 OVC035 01/M03 A2970 RMK AO2 PK WND 25028/1826 UPB20SNE03 P0000 T00061028
KJST 191827Z AUTO 26020G28KT 10SM UP BKN014 OVC021 01/M02 A2970 RMK AO2 PK WND 25028/1826 UPB20SNE03 P0000 T00061022
KJST 191802Z AUTO 28014G24KT 7SM -SN BKN016 OVC023 01/M02 A2970 RMK AO2 P0000 T00061017
KJST 191754Z AUTO 28016G28KT 2 1/2SM -SN OVC018 01/M02 A2970 RMK AO2 PK WND 27028/1747 UPB45E47SNB35E45B47 SLP065 P0000 60002 T00061022 10011 20000 50011
KJST 191701Z AUTO 28018G25KT 10SM SCT013 BKN021 OVC033 01/M02 A2970 RMK AO2 T00061022
KJST 191654Z AUTO 28016G28KT 10SM FEW005 BKN013 OVC028 01/M02 A2970 RMK AO2 PK WND 27028/1647 UPE03SNB21E39 SLP066 P0000 T00061017
KJST 191637Z AUTO 27015G26KT 4SM -SN BR FEW007 BKN015 OVC022 00/M02 A2971 RMK AO2 PK WND 28026/1632 UPE03SNB21 P0000 T00001017
KJST 191623Z AUTO 27013G23KT 1 3/4SM -SN FEW009 BKN022 OVC030 01/M02 A2971 RMK AO2 UPE03SNB21 P0000 T00061022
KJST 191554Z AUTO 29013G27KT 10SM UP SCT018 BKN025 OVC033 01/M02 A2970 RMK AO2 PK WND 31040/1520 UPB49 SLP068 P0000 T00061022
KJST 191546Z AUTO 29016G27KT 10SM SCT021 BKN027 OVC034 01/M02 A2970 RMK AO2 PK WND 31040/1520 T00061022
KJST 191538Z AUTO 29017G29KT 10SM SCT021 SCT027 OVC034 01/M02 A2969 RMK AO2 PK WND 31040/1520 T00061022
KJST 191502Z AUTO 28025G33KT 10SM FEW014 BKN019 OVC035 01/M02 A2967 RMK AO2 PK WND 28033/1502 T00061017
KJST 191454Z AUTO 28025G33KT 10SM FEW008 BKN014 OVC022 01/M02 A2967 RMK AO2 PK WND 28036/1443 SNE12B26E43 SLP059 P0000 60002 T00061017 51028
KJST 191439Z AUTO 28025G33KT 3SM -SN BR SCT009 BKN014 OVC037 01/M01 A2966 RMK AO2 PK WND 29033/1438 SNE12B26 P0000 T00061006
KJST 191430Z AUTO 28020G29KT 2 1/2SM -SN BR BKN009 OVC014 01/M01 A2965 RMK AO2 PK WND 28032/1406 SNE12B26 P0000 T00061006
KJST 191427Z AUTO 29017G29KT 6SM -SN BR BKN008 OVC012 01/M01 A2965 RMK AO2 PK WND 28032/1406 SNE12B26 CIG 005V010 P0000 T00061006
KJST 191425Z AUTO 28017G31KT 8SM OVC010 01/M01 A2965 RMK AO2 PK WND 28032/1406 SNE12 CIG 005V015 P0000 T00111006
KJST 191407Z AUTO 28022G32KT 3SM -SN BR BKN008 OVC013 01/M01 A2964 RMK AO2 PK WND 28032/1406 P0000 T00061006
KJST 191405Z AUTO 29019G31KT 2SM -SN BR BKN008 OVC013 01/M01 A2964 RMK AO2 PK WND 29031/1400 P0000 T00061006
KJST 191400Z AUTO 29025G35KT 3/4SM -SN BR BKN008 OVC013 01/M01 A2963 RMK AO2 PK WND 29031/1400 P0000 T00061006
KJST 191354Z AUTO 29026G35KT 1 1/4SM -SN BR SCT008 OVC013 01/M01 A2963 RMK AO2 PK WND 28035/1352 SNE32B51 SLP045 P0001 T00061006
KJST 191327Z AUTO 28019G27KT 5SM -SN BR SCT006 OVC012 01/00 A2963 RMK AO2 PK WND 27027/1327 P0001 T00110000
KJST 191324Z AUTO 28017G24KT 2SM -SN BR BKN006 OVC012 01/00 A2963 RMK AO2 VIS 3/4V5 P0001 T00110000
KJST 191316Z AUTO 28017G22KT 3/4SM -SN BR BKN006 OVC009 01/00 A2963 RMK AO2 P0001 T00060000
KJST 191303Z AUTO 29014G23KT 1 3/4SM -SN BR BKN006 OVC010 01/00 A2962 RMK AO2 CIG 004V009 P0000 T00110000
KJST 191254Z AUTO 28013G21KT 4SM -SN BR BKN006 OVC010 01/00 A2962 RMK AO2 PK WND 28030/1227 UPB22E30SNE22B50 SLP040 P0001 T00110000
KJST 191219Z AUTO 28017G23KT 5SM -SN BR OVC005 01/01 A2960 RMK AO2 CIG 003V008 P0001 T00110006
KJST 191210Z AUTO 27015G20KT 2 1/2SM -SN BR OVC005 01/01 A2959 RMK AO2 P0001 T00110006
KJST 191154Z AUTO 28013KT 1 3/4SM -SN BR BKN005 OVC010 01/01 A2958 RMK AO2 PK WND 29032/1121 SLP028 P0001 60014 70129 T00060006 10139 20006 51026
KJST 191149Z AUTO 29013KT 1 3/4SM -SN BR BKN005 OVC011 01/01 A2958 RMK AO2 PK WND 29032/1121 P0001
KJST 191102Z AUTO 27018G28KT 2 1/2SM -SN BR OVC006 01/00 A2954 RMK AO2 PK WND 26028/1057 P0000 T00060000
KJST 191054Z AUTO 28018G31KT 1 3/4SM -SN BR BKN006 OVC010 01/00 A2953 RMK AO2 PK WND 31031/1052 SLP014 P0002 T00060000
KJST 190954Z AUTO 26017G22KT 1 1/4SM -SN BR BKN006 OVC010 01/00 A2950 RMK AO2 PK WND 23029/0855 SLP002 P0002 T00060000